• Join FlightAware (Why Join?)
  • Login
  • US Flag 
05:56PM EDT


 

Airport Tracker/Info


-or-


 

Live Flight TrackerFlight Track Log ✈ N64859 ✈ 21-Jun-2013 ✈ X21 - KFXE

Flight Track Log - Related Links

Times and Time Zones

All times are in EDT time to prevent confusion due to time zone crossing. See the N64859 flight status page for this flight to view local times or setup timezone preferences in your user account.

Time Position Orientation Groundspeed Altitude Reporting Facility
EDT Latitude Longitude Course Direction KTS MPH feet Rate Location/Type
12:37PM 28.8333 -80.9000 166° South 98 113 2,500  Level Orlando TRACON
12:38PM 28.8000 -80.9000 180° South 96 110 2,500  Level Orlando TRACON
12:39PM 28.7833 -80.8833 139° Southeast 93 107 2,600  Climbing Orlando TRACON
12:40PM 28.7500 -80.8833 180° South 99 114 2,500  Descending Orlando TRACON
12:41PM 28.7333 -80.8833 180° South 98 113 2,600  Climbing Orlando TRACON
12:42PM 28.4678 -80.7921 166° South  Level Estimated
12:42PM 28.7000 -80.8667 156° South 98 113 2,600  Level Orlando TRACON
12:43PM 28.6667 -80.8667 180° South 96 110 2,600  Level Orlando TRACON
12:44PM 28.6500 -80.8667 180° South 105 121 2,600  Level Orlando TRACON
12:45PM 28.6167 -80.8500 156° South 97 112 2,600  Level Orlando TRACON
12:46PM 28.5833 -80.8500 180° South 101 116 2,600  Level Orlando TRACON
12:47PM 28.5500 -80.8500 180° South 101 116 2,600  Level Orlando TRACON
12:48PM 28.5333 -80.8500 180° South 105 121 2,600  Level Orlando TRACON
12:49PM 28.5000 -80.8333 156° South 99 114 2,600  Level Orlando TRACON
12:50PM 28.4833 -80.8333 180° South 98 113 2,600  Level Orlando TRACON
12:51PM 28.4500 -80.8167 156° South 102 117 2,700  Climbing Orlando TRACON
12:52PM 28.4333 -80.8167 180° South 111 128 2,700 -120 Level Orlando TRACON
12:53PM 28.4000 -80.7833 139° Southeast 102 117 2,500 -120 Descending Orlando TRACON
12:54PM 28.3833 -80.7667 139° Southeast 108 124 2,500 -180 Level Orlando TRACON
12:55PM 28.3667 -80.7333 120° Southeast 104 120 2,200 -300 Descending Orlando TRACON
12:56PM 28.3500 -80.7167 139° Southeast 102 117 2,000 -60 Descending Orlando TRACON
12:57PM 28.3333 -80.7000 139° Southeast 98 113 2,100 300 Climbing Orlando TRACON
12:58PM 28.3167 -80.6667 120° Southeast 97 112 2,600 420 Climbing Orlando TRACON
12:59PM 28.3000 -80.6500 139° Southeast 99 114 3,000 480 Climbing Orlando TRACON
01:00PM 28.2833 -80.6333 139° Southeast 94 108 3,600 480 Climbing Orlando TRACON
01:01PM 28.2500 -80.6167 156° South 99 114 4,000 360 Climbing Orlando TRACON
01:02PM 28.2333 -80.6000 139° Southeast 91 105 4,400 420 Climbing Orlando TRACON
01:03PM 28.2167 -80.6000 180° South 85 98 4,800 360 Climbing Orlando TRACON
01:04PM 28.1833 -80.6000 180° South 85 98 5,100 240 Climbing Orlando TRACON
01:05PM 28.1625 -80.5894 156° South 94 108 5,300 -840 Climbing Miami Center
01:06PM 28.1375 -80.5861 173° South 94 108 3,500 -900 Descending Miami Center
01:07PM 28.1106 -80.5783 166° South 94 108 3,500  Level Miami Center
01:08PM 28.0856 -80.5728 169° South 94 108 3,500  Level Miami Center
01:10PM 28.0533 -80.5317 132° Southeast 94 108 3,500  Level Miami Center
01:11PM 28.0436 -80.5078 115° Southeast 123 142 3,500  Level Miami Center
01:12PM 28.0192 -80.4789 134° Southeast 116 133 3,500  Level Miami Center
01:13PM 28.0008 -80.4569 133° Southeast 116 133 3,500  Level Miami Center
01:14PM 27.9806 -80.4328 134° Southeast 116 133 3,500  Level Miami Center
01:15PM 27.9739 -80.4492 245° Southwest 116 133 3,500  Level Miami Center
01:16PM 27.9656 -80.4489 178° South 116 133 3,500 1,140 Level Miami Center
01:17PM 27.9022 -80.4022 147° Southeast 100 115 5,800 1,080 Climbing Miami Center
01:18PM 27.8733 -80.3850 152° Southeast 107 123 5,700 -120 Descending Miami Center
01:19PM 27.8464 -80.3725 158° South 112 129 5,600 -1,140 Descending Miami Center
01:20PM 27.8156 -80.3597 160° South 112 129 3,500 -1,080 Descending Miami Center
01:21PM 27.7844 -80.3469 160° South 112 129 3,500  Level Miami Center
01:22PM 27.7658 -80.3394 160° South 112 129 3,500  Level Miami Center
01:24PM 27.7292 -80.3078 143° Southeast 112 129 3,500  Level Miami Center
01:25PM 27.7061 -80.3025 169° South 112 129 3,500  Level Miami Center
01:26PM 27.6856 -80.2969 167° South 112 129 3,500 300 Level Miami Center
01:27PM 27.6517 -80.3125 202° Southwest 102 117 4,100  Climbing Miami Center
01:28PM 27.6267 -80.3069 169° South 102 117 3,500 -300 Descending Miami Center
01:29PM 27.5997 -80.2992 166° South 102 117 3,500 -180 Level Miami Center
01:30PM 27.5753 -80.2772 141° Southeast 105 121 3,200 -180 Descending Miami Center
01:31PM 27.5481 -80.2764 178° South 105 121 3,200 -360 Level Miami Center
01:32PM 27.5167 -80.2850 194° South 100 115 2,500 -360 Descending Miami Center
01:33PM 27.4917 -80.2842 178° South 100 115 2,500 -300 Level Miami Center
01:34PM 27.4625 -80.2764 167° South 102 117 2,000 -300 Descending Miami Center
01:35PM 27.4419 -80.2711 167° South 102 117 2,000  Level Miami Center
01:36PM 27.4192 -80.2633 163° South 102 117 2,000  Level Miami Center
01:37PM 27.3900 -80.2531 163° South 95 109 2,000  Level Miami Center
01:38PM 27.3714 -80.2433 155° Southeast 84 97 2,000  Level Miami Center
01:39PM 27.3486 -80.2378 168° South 84 97 2,000  Level Miami Center
01:40PM 27.3281 -80.2281 157° South 84 97 2,000  Level Miami Center
01:41PM 27.3072 -80.2181 157° South 89 102 2,000  Level Miami Center
01:42PM 27.2783 -80.2031 155° Southeast 89 102 2,000  Level Miami Center
01:43PM 27.2578 -80.1933 157° South 89 102 2,000  Level Miami Center
01:44PM 27.2308 -80.1831 161° South 95 109 2,000  Level Miami Center
01:45PM 27.2019 -80.1753 167° South 100 115 2,000  Level Miami Center
01:46PM 27.1769 -80.1675 165° South 100 115 2,000  Level Miami Center
01:47PM 27.1500 -80.1619 170° South 100 115 2,000  Level Miami Center
01:48PM 27.1250 -80.1544 165° South 100 115 2,000  Level Miami Center
01:50PM 27.0817 -80.1552 181° South  Level FlightAware Approximate
01:57PM 26.9036 -80.1581 181° South  Level FlightAware Approximate
01:58PM 26.8782 -80.1585 181° South  Level FlightAware Approximate
01:59PM 26.8527 -80.1590 181° South  Level FlightAware Approximate
02:00PM 26.8272 -80.1594 181° South  Level FlightAware Approximate
02:01PM 26.8018 -80.1598 181° South  Level FlightAware Approximate
02:02PM 26.7764 -80.1602 181° South  Level FlightAware Approximate
02:03PM 26.7509 -80.1606 181° South  Level FlightAware Approximate
02:04PM 26.7255 -80.1610 181° South  Level FlightAware Approximate
02:05PM 26.7000 -80.1615 181° South  Level FlightAware Approximate
02:06PM 26.6745 -80.1619 181° South  Level FlightAware Approximate
02:07PM 26.6491 -80.1623 181° South  Level FlightAware Approximate
02:08PM 26.6236 -80.1627 181° South  Level FlightAware Approximate
02:09PM 26.5982 -80.1631 181° South  Level FlightAware Approximate
02:10PM 26.5728 -80.1636 181° South  Level FlightAware Approximate
02:11PM 26.5473 -80.1640 181° South  Level FlightAware Approximate
02:12PM 26.5219 -80.1644 181° South  Level FlightAware Approximate
02:13PM 26.4964 -80.1648 181° South  Level FlightAware Approximate
02:14PM 26.4709 -80.1652 181° South  Level FlightAware Approximate
02:15PM 26.4455 -80.1656 181° South  Level FlightAware Approximate
02:16PM 26.4200 -80.1661 181° South  Level FlightAware Approximate
02:17PM 26.3946 -80.1665 181° South  Level FlightAware Approximate
02:18PM 26.3692 -80.1667 180° South  Level FlightAware Approximate
02:19PM 26.3437 -80.1667 180° South  Level FlightAware Approximate
02:20PM 26.3183 -80.1667 180° South  Level FlightAware Approximate
02:21PM 26.2928 -80.1667 180° South  Level FlightAware Approximate
02:22PM 26.2674 -80.1667 180° South  Level FlightAware Approximate
02:23PM 26.2419 -80.1667 180° South  Level FlightAware Approximate
02:24PM 26.2165 -80.1667 180° South  Level FlightAware Approximate
02:25PM 26.1910 -80.1667 180° South  Level FlightAware Approximate
02:26PM 26.1833 -80.1667 180° South  Level FlightAware Approximate
02:27PM 26.1973 -80.1707 180° South  Level Estimated
02:28PM 26.1973 -80.1707 180° South  Level Estimated
02:29PM 26.1973 -80.1707 180° South  Level Estimated
02:30PM 26.1973 -80.1707 180° South  Level Estimated
02:31PM 26.1973 -80.1707 180° South  Level Estimated
02:32PM 26.1973 -80.1707 180° South  Level Estimated
02:33PM 26.1973 -80.1707 180° South  Level Estimated
02:34PM 26.1973 -80.1707 180° South  Level Estimated
02:35PM 26.1973 -80.1707 180° South  Level Estimated
02:36PM 26.1973 -80.1707 180° South  Level Estimated
02:37PM 26.1973 -80.1707 180° South  Level Estimated
02:38PM 26.1973 -80.1707 180° South  Level Estimated
02:39PM 26.1973 -80.1707 180° South  Level Estimated
02:40PM 26.1973 -80.1707 180° South  Level Estimated
02:41PM 26.1973 -80.1707 180° South  Level Estimated
02:42PM 26.1973 -80.1707 180° South  Level Estimated